Time;durP1;ratioP1;P1;durP2;ratioP2;P2;SDS_P1;SDS_P2;PMS_P1;PMS_P2;Temp;Humidity;BMP_temperature;BMP_pressure;BME280_temperature;BME280_humidity;BME280_pressure;Samples;Min_cycle;Max_cycle;Signal;HPM_P1;HPM_P2
2021/08/25 00:02:18;;;;;;;3.58;2.00;;;22.10;70.20;;;;;;5041580;28;20036;-70
2021/08/25 00:04:44;;;;;;;8.23;2.30;;;22.00;70.90;;;;;;5040053;28;20042;-70
2021/08/25 00:07:11;;;;;;;2.95;1.85;;;22.00;70.10;;;;;;5041350;28;20370;-71
2021/08/25 00:09:40;;;;;;;3.92;1.90;;;21.90;70.80;;;;;;5041528;28;20478;-71
2021/08/25 00:12:08;;;;;;;5.35;2.92;;;21.90;70.40;;;;;;5040702;28;20462;-71
2021/08/25 00:14:37;;;;;;;4.22;2.00;;;22.00;69.60;;;;;;5040902;28;20393;-72
2021/08/25 00:17:03;;;;;;;3.75;1.90;;;22.00;68.30;;;;;;5042071;28;20033;-73
2021/08/25 00:19:30;;;;;;;6.95;2.47;;;21.90;67.00;;;;;;5041019;28;20017;-72
2021/08/25 00:21:56;;;;;;;3.95;1.95;;;21.90;65.90;;;;;;5040415;28;20029;-72
2021/08/25 00:24:23;;;;;;;5.05;2.30;;;21.90;65.20;;;;;;5042058;28;20032;-71
2021/08/25 00:26:50;;;;;;;5.15;2.28;;;21.90;64.90;;;;;;5040924;28;20029;-72
2021/08/25 00:29:16;;;;;;;3.95;1.88;;;21.80;65.10;;;;;;5022474;28;20049;-71
2021/08/25 00:31:43;;;;;;;3.08;1.80;;;21.80;65.20;;;;;;5041972;28;20477;-71
2021/08/25 00:34:09;;;;;;;4.15;1.90;;;21.80;65.30;;;;;;5040719;28;20032;-74
2021/08/25 00:36:36;;;;;;;3.95;1.80;;;21.80;65.40;;;;;;5039602;28;20037;-73
2021/08/25 00:39:03;;;;;;;5.85;1.90;;;21.80;65.30;;;;;;5038462;28;20385;-74
2021/08/25 00:41:30;;;;;;;3.42;1.83;;;21.80;65.40;;;;;;5040954;28;20028;-73
2021/08/25 00:43:57;;;;;;;2.97;1.90;;;21.90;65.40;;;;;;5041802;28;20034;-73
2021/08/25 00:46:26;;;;;;;4.38;2.25;;;21.90;65.40;;;;;;5039792;28;20501;-72
2021/08/25 00:48:53;;;;;;;2.65;1.80;;;21.90;65.50;;;;;;5040803;28;20044;-74
2021/08/25 00:51:23;;;;;;;2.50;1.63;;;21.80;65.00;;;;;;5041371;28;20036;-73
2021/08/25 00:53:50;;;;;;;3.90;1.40;;;21.70;65.50;;;;;;5040750;28;20378;-73
2021/08/25 00:56:17;;;;;;;3.25;2.22;;;21.70;65.30;;;;;;5039039;28;20033;-74
2021/08/25 00:58:43;;;;;;;6.05;2.10;;;21.70;65.30;;;;;;5041820;28;20044;-74
2021/08/25 01:01:41;;;;;;;5.35;2.28;;;21.80;65.10;;;;;;5041189;28;20384;-74
2021/08/25 01:04:34;;;;;;;4.40;2.42;;;21.80;65.00;;;;;;5040487;28;20029;-73
2021/08/25 01:07:02;;;;;;;3.38;1.75;;;21.80;64.80;;;;;;5035729;28;20049;-73
2021/08/25 01:09:29;;;;;;;3.22;1.58;;;21.90;64.70;;;;;;5040690;28;20412;-72
2021/08/25 01:12:00;;;;;;;4.10;2.22;;;21.80;64.50;;;;;;5041159;28;20033;-72
2021/08/25 01:14:28;;;;;;;3.58;1.88;;;21.80;64.50;;;;;;5041366;28;20033;-72
2021/08/25 01:16:56;;;;;;;3.22;1.88;;;21.90;64.50;;;;;;5028453;28;20490;-72
2021/08/25 01:19:26;;;;;;;6.10;1.92;;;21.90;64.50;;;;;;5043139;28;20048;-73
2021/08/25 01:21:53;;;;;;;5.47;2.03;;;21.90;64.20;;;;;;5044172;28;20053;-74
2021/08/25 01:24:20;;;;;;;3.97;1.65;;;21.80;64.50;;;;;;5045372;28;21611;-73
2021/08/25 01:26:51;;;;;;;4.22;1.98;;;21.90;64.60;;;;;;5043619;28;20781;-73
2021/08/25 01:29:28;;;;;;;3.13;2.15;;;21.90;64.60;;;;;;5043510;28;20044;-73
2021/08/25 01:31:55;;;;;;;4.05;2.08;;;21.90;64.20;;;;;;5044544;28;20060;-74
2021/08/25 01:34:22;;;;;;;3.92;1.88;;;21.90;64.60;;;;;;5042737;28;20033;-73
2021/08/25 01:36:53;;;;;;;2.58;1.50;;;21.80;64.70;;;;;;5044536;28;20029;-73
2021/08/25 01:39:21;;;;;;;3.78;1.92;;;21.90;64.60;;;;;;5044454;28;20036;-72
2021/08/25 01:41:48;;;;;;;2.80;1.73;;;21.90;65.10;;;;;;5043083;28;20053;-73
2021/08/25 01:44:14;;;;;;;3.78;2.20;;;21.90;64.10;;;;;;5043618;28;20052;-69
2021/08/25 01:46:43;;;;;;;4.57;2.15;;;21.90;64.00;;;;;;5045057;28;20032;-74
2021/08/25 01:49:14;;;;;;;4.18;2.15;;;21.90;63.80;;;;;;5041988;28;20037;-74
2021/08/25 01:51:41;;;;;;;3.22;1.85;;;21.90;64.00;;;;;;5042494;28;20036;-70
2021/08/25 01:54:08;;;;;;;2.67;1.75;;;21.90;63.90;;;;;;5044303;28;20029;-72
2021/08/25 01:56:35;;;;;;;3.70;1.70;;;21.90;63.80;;;;;;5044245;28;20041;-73
2021/08/25 01:59:02;;;;;;;3.33;1.90;;;21.90;63.70;;;;;;5042453;28;20022;-72
2021/08/25 02:01:29;;;;;;;2.80;1.77;;;21.90;63.50;;;;;;5043933;28;20028;-73
2021/08/25 02:03:58;;;;;;;2.22;1.50;;;21.90;63.40;;;;;;5042584;28;20042;-73
2021/08/25 02:06:25;;;;;;;6.55;2.03;;;21.90;63.30;;;;;;5040900;28;20041;-74
2021/08/25 02:08:52;;;;;;;5.63;2.25;;;21.90;63.30;;;;;;5041975;28;20504;-74
2021/08/25 02:11:19;;;;;;;3.42;1.88;;;21.90;63.30;;;;;;5044088;28;20033;-74
2021/08/25 02:13:46;;;;;;;2.97;1.60;;;21.90;63.40;;;;;;5042404;28;20087;-75
2021/08/25 02:16:12;;;;;;;3.13;1.90;;;21.90;63.40;;;;;;5042922;28;20048;-72
2021/08/25 02:18:39;;;;;;;5.05;1.95;;;21.90;63.40;;;;;;5042897;28;20044;-73
2021/08/25 02:21:21;;;;;;;2.95;1.75;;;21.90;63.40;;;;;;5043509;28;20037;-73
2021/08/25 02:23:47;;;;;;;3.73;1.63;;;21.90;63.40;;;;;;5042453;28;20044;-73
2021/08/25 02:26:16;;;;;;;3.72;1.80;;;21.90;63.40;;;;;;5041850;28;20029;-74
2021/08/25 02:28:48;;;;;;;2.88;1.90;;;21.90;63.50;;;;;;5042979;28;20409;-76
2021/08/25 02:31:15;;;;;;;3.22;1.58;;;21.90;63.60;;;;;;5043134;28;20025;-70
2021/08/25 02:33:42;;;;;;;2.38;1.80;;;21.90;64.30;;;;;;5041399;28;20048;-74
2021/08/25 02:36:10;;;;;;;3.15;1.95;;;21.90;63.40;;;;;;5026784;28;20038;-73
2021/08/25 02:38:38;;;;;;;4.72;1.60;;;21.90;63.10;;;;;;5041985;28;20029;-74
2021/08/25 02:41:08;;;;;;;3.92;1.90;;;21.90;63.10;;;;;;5043630;28;20041;-74
2021/08/25 02:43:35;;;;;;;4.72;1.88;;;21.90;64.00;;;;;;5043133;28;20440;-74
2021/08/25 02:46:02;;;;;;;2.90;1.90;;;21.90;63.30;;;;;;5040981;28;20477;-72
2021/08/25 02:48:29;;;;;;;4.00;1.85;;;21.90;63.70;;;;;;5043382;28;20033;-74
2021/08/25 02:50:56;;;;;;;4.07;2.20;;;21.90;64.50;;;;;;5042878;28;20033;-74
2021/08/25 02:53:22;;;;;;;3.70;2.28;;;21.90;63.30;;;;;;5041487;28;20037;-73
2021/08/25 02:55:49;;;;;;;3.10;2.03;;;21.90;63.20;;;;;;5043044;28;20025;-75
2021/08/25 02:58:15;;;;;;;3.13;1.83;;;21.90;63.10;;;;;;5041050;28;20041;-72
2021/08/25 03:00:42;;;;;;;4.28;2.20;;;21.90;63.30;;;;;;5040880;28;20052;-75
2021/08/25 03:03:08;;;;;;;4.05;1.73;;;21.90;63.50;;;;;;5042968;28;20025;-75
2021/08/25 03:05:35;;;;;;;4.35;1.52;;;21.90;63.80;;;;;;5042774;28;20029;-74
2021/08/25 03:08:01;;;;;;;2.92;1.55;;;21.80;63.50;;;;;;5041117;28;20036;-74
2021/08/25 03:10:28;;;;;;;5.10;2.03;;;21.80;63.60;;;;;;5042594;28;20037;-74
2021/08/25 03:12:54;;;;;;;2.55;1.70;;;21.80;64.10;;;;;;5042251;28;20049;-75
2021/08/25 03:15:21;;;;;;;2.78;1.90;;;21.60;65.90;;;;;;5040830;28;20044;-74
2021/08/25 03:17:48;;;;;;;2.45;1.55;;;21.60;66.60;;;;;;5042517;28;20036;-74
2021/08/25 03:20:14;;;;;;;3.88;2.33;;;21.60;67.20;;;;;;5042975;28;20493;-75
2021/08/25 03:22:41;;;;;;;3.67;2.42;;;21.60;67.60;;;;;;5041027;28;20033;-73
2021/08/25 03:25:09;;;;;;;4.43;1.83;;;21.60;67.70;;;;;;5042523;28;20033;-73
2021/08/25 03:27:36;;;;;;;3.42;1.98;;;21.60;67.60;;;;;;5042287;28;20030;-74
2021/08/25 03:30:04;;;;;;;3.47;2.15;;;21.40;68.20;;;;;;5040090;28;20052;-73
2021/08/25 03:32:31;;;;;;;3.03;1.95;;;21.30;68.30;;;;;;5040828;28;20478;-74
2021/08/25 03:34:57;;;;;;;6.15;2.00;;;21.40;68.10;;;;;;5040866;28;20045;-73
2021/08/25 03:37:24;;;;;;;5.18;2.03;;;21.40;67.50;;;;;;5040559;28;20017;-72
2021/08/25 03:39:50;;;;;;;4.20;1.95;;;21.50;67.30;;;;;;5041761;28;20037;-73
2021/08/25 03:42:17;;;;;;;5.25;1.80;;;21.50;67.50;;;;;;5041949;28;20041;-72
2021/08/25 03:44:43;;;;;;;3.03;1.90;;;21.40;68.00;;;;;;5039279;28;20029;-73
2021/08/25 03:47:10;;;;;;;4.72;1.83;;;21.40;68.30;;;;;;5041209;28;20028;-73
2021/08/25 03:49:36;;;;;;;4.20;1.90;;;21.40;68.70;;;;;;5040457;28;20044;-75
2021/08/25 03:52:05;;;;;;;5.43;2.38;;;21.40;68.90;;;;;;5040022;28;20041;-74
2021/08/25 03:54:31;;;;;;;4.13;2.17;;;21.30;69.30;;;;;;5041494;28;20032;-73
2021/08/25 03:56:58;;;;;;;3.38;1.88;;;21.30;69.50;;;;;;5041928;28;20040;-72
2021/08/25 03:59:24;;;;;;;3.13;2.15;;;21.30;69.60;;;;;;5040217;28;20045;-72
2021/08/25 04:01:51;;;;;;;3.67;1.60;;;21.40;69.50;;;;;;5041583;28;20037;-73
2021/08/25 04:04:18;;;;;;;3.50;1.85;;;21.40;69.40;;;;;;5041576;28;20068;-72
2021/08/25 04:06:44;;;;;;;3.47;1.65;;;21.40;69.40;;;;;;5032847;28;20406;-72
2021/08/25 04:09:11;;;;;;;3.78;2.40;;;21.40;69.40;;;;;;5040667;28;20041;-72
2021/08/25 04:11:38;;;;;;;4.32;2.22;;;21.40;69.00;;;;;;5040397;28;20037;-73
2021/08/25 04:14:04;;;;;;;2.55;1.80;;;21.40;69.10;;;;;;5041738;28;20067;-73
2021/08/25 04:16:31;;;;;;;5.15;2.33;;;21.40;69.50;;;;;;5040945;28;20021;-74
2021/08/25 04:18:57;;;;;;;3.67;2.10;;;21.40;70.00;;;;;;5040433;28;20029;-74
2021/08/25 04:21:25;;;;;;;3.25;2.00;;;21.30;70.50;;;;;;5042162;28;20029;-74
2021/08/25 04:23:52;;;;;;;4.65;1.90;;;21.30;71.00;;;;;;5040949;28;20041;-75
2021/08/25 04:26:19;;;;;;;6.47;2.90;;;21.30;71.10;;;;;;5038626;28;20045;-75
2021/08/25 04:28:45;;;;;;;3.95;2.33;;;21.20;71.90;;;;;;5041983;28;20509;-74
2021/08/25 04:31:12;;;;;;;3.40;2.40;;;21.20;72.10;;;;;;5040923;28;20033;-74
2021/08/25 04:33:38;;;;;;;6.00;2.55;;;21.10;72.70;;;;;;5040304;28;20037;-74
2021/08/25 04:36:05;;;;;;;3.28;2.38;;;21.10;73.20;;;;;;5041806;28;20032;-74
2021/08/25 04:38:31;;;;;;;4.75;2.30;;;21.00;73.80;;;;;;5040369;28;20029;-73
2021/08/25 04:40:59;;;;;;;5.63;2.30;;;21.00;74.00;;;;;;5039513;28;20504;-74
2021/08/25 04:43:26;;;;;;;5.35;2.50;;;21.00;74.10;;;;;;5040708;28;20036;-73
2021/08/25 04:45:53;;;;;;;5.00;2.28;;;21.00;74.10;;;;;;5040849;28;20040;-76
2021/08/25 04:48:20;;;;;;;3.28;2.40;;;21.00;74.00;;;;;;5040055;28;20407;-74
2021/08/25 04:50:47;;;;;;;3.08;2.28;;;21.00;74.10;;;;;;5043416;28;20040;-75
2021/08/25 04:53:13;;;;;;;3.45;2.38;;;21.00;74.10;;;;;;5044730;28;20041;-74
2021/08/25 04:55:40;;;;;;;6.97;3.10;;;21.00;74.20;;;;;;5045817;28;20029;-76
2021/08/25 04:58:07;;;;;;;3.28;2.50;;;20.90;74.10;;;;;;5043791;28;20033;-75
2021/08/25 05:00:34;;;;;;;4.22;2.25;;;21.00;74.40;;;;;;5044784;28;20469;-73
2021/08/25 05:03:01;;;;;;;3.88;2.17;;;21.00;74.30;;;;;;5044707;28;20382;-73
2021/08/25 05:05:28;;;;;;;5.00;2.92;;;21.00;74.00;;;;;;5044834;28;20476;-73
2021/08/25 05:07:54;;;;;;;7.05;2.58;;;21.00;73.90;;;;;;5043191;28;20061;-73
2021/08/25 05:10:22;;;;;;;3.22;2.33;;;21.00;73.50;;;;;;5042982;28;20044;-72
2021/08/25 05:12:48;;;;;;;2.90;1.83;;;21.10;73.40;;;;;;5043957;28;20069;-73
2021/08/25 05:15:15;;;;;;;3.47;2.15;;;21.10;73.10;;;;;;5044714;28;20026;-73
2021/08/25 05:17:41;;;;;;;4.88;2.17;;;21.10;72.90;;;;;;5043379;28;20399;-61
2021/08/25 05:20:08;;;;;;;3.85;1.67;;;21.10;72.60;;;;;;5044750;28;20037;-61
2021/08/25 05:22:35;;;;;;;3.78;1.70;;;21.00;72.10;;;;;;5044079;28;20040;-60
2021/08/25 05:25:02;;;;;;;3.63;1.83;;;21.10;72.30;;;;;;5043197;28;20036;-66
2021/08/25 05:27:29;;;;;;;2.95;1.83;;;21.10;72.10;;;;;;5035190;28;20040;-65
2021/08/25 05:29:55;;;;;;;3.28;1.58;;;21.10;71.70;;;;;;5042908;28;20060;-66
2021/08/25 05:32:22;;;;;;;2.58;1.65;;;21.20;71.40;;;;;;5042763;28;20037;-66
2021/08/25 05:34:48;;;;;;;5.25;2.15;;;21.10;71.00;;;;;;5044667;28;20036;-66
2021/08/25 05:37:14;;;;;;;6.93;3.65;;;21.10;70.80;;;;;;5043863;28;20359;-63
2021/08/25 05:39:41;;;;;;;4.63;3.22;;;21.10;71.00;;;;;;5042489;28;20064;-67
2021/08/25 05:42:08;;;;;;;6.82;3.85;;;21.10;71.00;;;;;;5044736;28;20029;-62
2021/08/25 05:44:34;;;;;;;6.15;3.03;;;20.90;71.40;;;;;;5043871;28;20367;-63
2021/08/25 05:47:01;;;;;;;4.88;2.75;;;21.00;71.60;;;;;;5042718;28;20033;-63
2021/08/25 05:49:28;;;;;;;5.03;2.35;;;21.10;72.20;;;;;;5034289;28;20056;-63
2021/08/25 05:51:55;;;;;;;4.28;2.60;;;21.20;70.90;;;;;;5043509;28;20053;-63
2021/08/25 05:54:22;;;;;;;5.05;2.38;;;21.10;71.10;;;;;;5042495;28;20037;-63
2021/08/25 05:56:48;;;;;;;4.53;2.10;;;21.20;71.20;;;;;;5044374;28;20083;-63
2021/08/25 05:59:15;;;;;;;3.70;1.83;;;21.00;71.80;;;;;;5043748;28;20500;-67
2021/08/25 06:01:41;;;;;;;4.25;1.70;;;21.10;71.90;;;;;;5041970;28;20034;-64
2021/08/25 06:04:08;;;;;;;5.03;2.03;;;21.20;71.80;;;;;;5043279;28;20492;-64
2021/08/25 06:06:34;;;;;;;4.70;1.98;;;21.30;71.40;;;;;;5043315;28;20024;-64
2021/08/25 06:09:04;;;;;;;4.30;2.03;;;21.10;71.60;;;;;;5041853;28;20032;-64
2021/08/25 06:11:36;;;;;;;3.80;1.95;;;21.00;72.10;;;;;;5043146;28;20453;-62
2021/08/25 06:14:03;;;;;;;3.15;1.45;;;21.20;72.10;;;;;;5042700;28;20029;-63
2021/08/25 06:16:30;;;;;;;3.83;1.80;;;21.30;71.70;;;;;;5042507;28;20029;-63
2021/08/25 06:18:56;;;;;;;5.03;2.08;;;21.40;71.90;;;;;;5041248;28;20052;-63
2021/08/25 06:21:23;;;;;;;6.35;2.92;;;21.40;72.00;;;;;;5044166;28;20104;-63
2021/08/25 06:23:49;;;;;;;4.68;2.15;;;21.20;72.90;;;;;;5042369;28;20493;-65
2021/08/25 06:26:16;;;;;;;5.05;2.20;;;21.00;74.70;;;;;;5042886;28;20056;-70
2021/08/25 06:28:42;;;;;;;4.50;2.10;;;20.90;75.30;;;;;;5044312;28;20052;-67
2021/08/25 06:31:09;;;;;;;5.55;2.60;;;21.00;75.10;;;;;;5042039;28;20048;-75
2021/08/25 06:33:35;;;;;;;4.88;2.17;;;21.20;74.30;;;;;;5042523;28;20033;-72
2021/08/25 06:36:02;;;;;;;6.80;2.47;;;21.30;73.80;;;;;;5043666;28;20045;-74
2021/08/25 06:38:29;;;;;;;7.93;2.30;;;21.20;74.40;;;;;;5041152;28;20017;-75
2021/08/25 06:40:56;;;;;;;3.10;2.20;;;21.00;75.70;;;;;;5042114;28;20053;-76
2021/08/25 06:43:22;;;;;;;7.10;2.60;;;20.90;76.60;;;;;;5043528;28;20520;-72
2021/08/25 06:45:49;;;;;;;4.90;2.55;;;21.00;75.70;;;;;;5040760;28;20033;-75
2021/08/25 06:48:17;;;;;;;3.03;1.77;;;21.00;75.30;;;;;;5042407;28;20029;-72
2021/08/25 06:50:44;;;;;;;2.88;1.85;;;21.10;74.70;;;;;;5043544;28;20033;-73
2021/08/25 06:53:11;;;;;;;5.22;1.95;;;21.20;74.40;;;;;;5041617;28;20045;-68
2021/08/25 06:55:37;;;;;;;5.10;1.90;;;21.40;73.70;;;;;;5041921;28;20059;-68
2021/08/25 06:58:04;;;;;;;6.45;2.15;;;21.60;72.50;;;;;;5043306;28;20052;-71
2021/08/25 07:00:30;;;;;;;4.25;2.08;;;21.80;71.70;;;;;;5041315;28;20045;-69
2021/08/25 07:02:57;;;;;;;3.65;2.22;;;21.40;72.40;;;;;;5046042;28;20036;-72
2021/08/25 07:05:23;;;;;;;3.45;1.80;;;21.30;73.20;;;;;;5053438;28;20143;-69
2021/08/25 07:07:50;;;;;;;5.75;2.25;;;21.50;72.80;;;;;;5052225;28;20029;-71
2021/08/25 07:10:16;;;;;;;4.00;2.25;;;21.60;71.70;;;;;;5052561;28;20500;-70
2021/08/25 07:12:43;;;;;;;5.38;2.15;;;21.60;72.20;;;;;;5051090;28;20040;-70
2021/08/25 07:15:16;;;;;;;4.47;2.20;;;21.70;71.80;;;;;;5048990;28;20040;-68
2021/08/25 07:17:43;;;;;;;5.03;2.40;;;21.90;71.50;;;;;;5052864;28;20032;-68
2021/08/25 07:20:12;;;;;;;4.03;2.60;;;21.80;71.40;;;;;;5053369;28;20044;-69
2021/08/25 07:22:39;;;;;;;4.60;2.00;;;21.60;71.40;;;;;;5053038;28;20052;-70
2021/08/25 07:25:08;;;;;;;4.70;2.72;;;21.60;71.60;;;;;;5053282;28;20045;-76
2021/08/25 07:27:35;;;;;;;4.13;2.72;;;21.80;71.20;;;;;;5051172;28;20033;-76
2021/08/25 07:30:01;;;;;;;6.88;2.35;;;21.90;70.30;;;;;;5053425;28;20056;-76
2021/08/25 07:32:28;;;;;;;3.83;2.20;;;22.00;69.70;;;;;;5053058;28;20033;-77
2021/08/25 07:34:55;;;;;;;4.65;2.40;;;22.00;70.20;;;;;;5052544;28;20049;-73
2021/08/25 07:37:21;;;;;;;6.05;2.03;;;22.20;69.50;;;;;;5052350;28;20029;-74
2021/08/25 07:39:48;;;;;;;3.83;1.83;;;22.50;69.00;;;;;;5052661;28;20029;-75
2021/08/25 07:42:14;;;;;;;5.75;2.88;;;22.50;68.50;;;;;;5052795;28;20487;-74
2021/08/25 07:44:40;;;;;;;3.15;2.00;;;22.50;67.90;;;;;;5052942;28;20037;-73
2021/08/25 07:47:07;;;;;;;2.95;1.75;;;22.40;68.30;;;;;;5050582;28;20029;-71
2021/08/25 07:49:33;;;;;;;6.65;2.08;;;22.60;68.00;;;;;;5049762;28;20036;-67
2021/08/25 07:52:01;;;;;;;5.45;2.70;;;22.70;67.70;;;;;;5049813;28;20052;-68
2021/08/25 07:54:29;;;;;;;2.55;1.73;;;22.70;67.80;;;;;;5050490;28;20485;-68
2021/08/25 07:56:57;;;;;;;6.18;2.30;;;22.90;67.80;;;;;;5051490;28;20047;-68
2021/08/25 07:59:23;;;;;;;6.63;3.00;;;22.90;67.20;;;;;;5051213;28;20036;-70
2021/08/25 08:01:49;;;;;;;8.20;2.85;;;22.90;65.40;;;;;;5052496;28;20033;-68
2021/08/25 08:04:16;;;;;;;6.28;2.58;;;23.00;65.80;;;;;;5052222;28;20389;-68
2021/08/25 08:06:43;;;;;;;6.18;3.05;;;23.00;66.40;;;;;;5051460;28;20044;-68
2021/08/25 08:09:09;;;;;;;4.05;2.40;;;23.20;66.00;;;;;;5050571;28;20381;-68
2021/08/25 08:11:35;;;;;;;6.32;2.58;;;23.30;65.20;;;;;;5048139;28;20040;-67
2021/08/25 08:14:02;;;;;;;8.77;2.90;;;23.20;65.60;;;;;;5049963;28;20053;-68
2021/08/25 08:16:32;;;;;;;4.82;2.40;;;23.10;65.70;;;;;;5050514;28;20056;-68
2021/08/25 08:19:02;;;;;;;6.00;2.50;;;23.20;65.70;;;;;;5050156;28;20041;-68
2021/08/25 08:21:29;;;;;;;7.10;2.67;;;23.40;64.70;;;;;;5050959;28;20041;-68
2021/08/25 08:23:56;;;;;;;4.97;2.38;;;23.50;63.60;;;;;;5049810;28;20052;-68
2021/08/25 08:26:27;;;;;;;4.80;2.33;;;23.30;63.50;;;;;;5056948;28;20040;-68
2021/08/25 08:28:53;;;;;;;5.63;3.40;;;23.50;63.20;;;;;;5056549;28;20404;-68
2021/08/25 08:31:20;;;;;;;7.68;2.40;;;23.60;62.40;;;;;;5056633;28;20056;-68
2021/08/25 08:33:46;;;;;;;4.78;2.95;;;23.60;63.10;;;;;;5056428;28;20049;-67
2021/08/25 08:36:12;;;;;;;6.15;2.88;;;23.40;63.10;;;;;;5056144;28;20048;-68
2021/08/25 08:38:39;;;;;;;6.72;3.03;;;23.30;64.20;;;;;;5055946;28;20037;-67
2021/08/25 08:41:06;;;;;;;5.13;2.20;;;23.30;64.30;;;;;;5056250;28;20033;-68
2021/08/25 08:43:33;;;;;;;6.05;2.97;;;23.40;64.20;;;;;;5056525;28;20037;-67
2021/08/25 08:46:00;;;;;;;5.95;2.42;;;23.30;63.90;;;;;;5056089;28;20044;-67
2021/08/25 08:48:29;;;;;;;7.22;2.70;;;23.30;64.10;;;;;;5055877;28;20489;-67
2021/08/25 08:50:55;;;;;;;4.78;2.33;;;23.30;64.10;;;;;;5055659;28;20413;-68
2021/08/25 08:53:22;;;;;;;6.60;2.60;;;23.50;63.70;;;;;;5056823;28;20044;-67
2021/08/25 08:55:48;;;;;;;4.97;2.90;;;23.70;63.30;;;;;;5055814;28;20029;-67
2021/08/25 08:58:15;;;;;;;5.30;2.83;;;23.50;62.20;;;;;;5056009;28;20037;-67
2021/08/25 09:00:41;;;;;;;5.68;2.85;;;23.30;63.20;;;;;;5055512;28;20041;-67
2021/08/25 09:03:27;;;;;;;4.68;2.50;;;23.20;63.50;;;;;;5056012;28;20458;-67
2021/08/25 09:06:00;;;;;;;4.45;2.47;;;23.20;64.00;;;;;;5055477;28;20040;-67
2021/08/25 09:08:34;;;;;;;4.30;2.40;;;23.30;63.90;;;;;;5055973;28;20044;-66
2021/08/25 09:11:08;;;;;;;4.15;2.80;;;23.50;63.00;;;;;;5055602;28;20029;-67
2021/08/25 09:13:47;;;;;;;4.35;2.22;;;23.50;62.70;;;;;;5055687;28;20033;-66
2021/08/25 09:16:27;;;;;;;6.95;2.38;;;23.60;62.50;;;;;;5052452;28;20037;-67
2021/08/25 09:19:11;;;;;;;4.07;3.15;;;23.90;61.90;;;;;;5053868;28;20036;-68
2021/08/25 09:21:43;;;;;;;4.90;2.70;;;24.00;60.70;;;;;;5053237;28;20492;-68
2021/08/25 09:24:11;;;;;;;8.73;3.42;;;23.90;61.50;;;;;;5047782;28;20026;-67
2021/08/25 09:27:14;;;;;;;4.47;2.67;;;23.80;61.00;;;;;;5042615;28;20029;-68
2021/08/25 09:29:43;;;;;;;6.32;3.05;;;23.90;61.20;;;;;;5043718;28;20052;-67
2021/08/25 09:32:23;;;;;;;4.75;2.67;;;23.90;61.00;;;;;;5045435;28;20036;-67
2021/08/25 09:35:00;;;;;;;5.15;2.78;;;24.00;61.20;;;;;;5052793;28;20033;-66
2021/08/25 09:37:29;;;;;;;4.22;2.72;;;24.00;60.20;;;;;;5054682;28;20033;-66
2021/08/25 09:39:58;;;;;;;5.10;2.67;;;24.00;60.00;;;;;;5054775;28;20373;-66
2021/08/25 09:42:25;;;;;;;5.00;2.85;;;24.10;59.40;;;;;;5029665;28;20045;-67
2021/08/25 09:45:06;;;;;;;5.53;2.70;;;24.20;59.20;;;;;;5042632;28;20034;-67
2021/08/25 09:47:57;;;;;;;3.92;2.40;;;24.20;59.10;;;;;;5044180;28;20056;-67
2021/08/25 09:50:25;;;;;;;7.57;2.92;;;24.40;59.40;;;;;;5044596;28;20085;-67
2021/08/25 09:52:53;;;;;;;3.65;2.10;;;24.40;59.20;;;;;;5041844;28;20037;-68
2021/08/25 09:55:31;;;;;;;4.32;2.30;;;24.40;59.70;;;;;;5029566;28;20025;-67
2021/08/25 09:57:58;;;;;;;3.80;2.45;;;24.50;59.50;;;;;;5044314;28;20040;-67
2021/08/25 10:00:25;;;;;;;5.80;2.63;;;24.50;59.10;;;;;;5044209;28;20032;-67
2021/08/25 10:02:52;;;;;;;4.75;3.15;;;24.50;58.90;;;;;;5043338;28;20021;-67
2021/08/25 10:05:29;;;;;;;5.20;3.08;;;24.30;59.10;;;;;;5043301;28;20029;-67
2021/08/25 10:08:05;;;;;;;5.03;2.60;;;24.10;59.80;;;;;;5044319;28;20374;-67
2021/08/25 10:10:32;;;;;;;4.82;2.80;;;24.10;60.50;;;;;;5042988;28;20037;-67
2021/08/25 10:12:58;;;;;;;5.38;2.05;;;24.30;60.10;;;;;;5025512;28;20040;-67
2021/08/25 10:15:31;;;;;;;5.15;2.40;;;24.50;59.60;;;;;;5054244;28;20037;-67
2021/08/25 10:17:58;;;;;;;4.82;2.97;;;24.60;59.30;;;;;;5054671;28;20461;-67
2021/08/25 10:20:35;;;;;;;5.63;3.25;;;24.50;59.50;;;;;;5054262;28;20033;-66
2021/08/25 10:23:03;;;;;;;5.35;3.13;;;24.60;59.60;;;;;;5054128;28;20025;-67
2021/08/25 10:25:30;;;;;;;5.28;3.40;;;24.40;60.00;;;;;;5053289;28;20028;-66
2021/08/25 10:28:01;;;;;;;5.68;2.30;;;24.50;59.90;;;;;;5053741;28;20152;-68
2021/08/25 10:30:28;;;;;;;6.55;3.22;;;24.60;59.50;;;;;;5053255;28;20037;-65
2021/08/25 10:32:55;;;;;;;6.07;3.42;;;24.70;58.80;;;;;;5054544;28;20033;-65
2021/08/25 10:35:26;;;;;;;7.53;2.67;;;24.90;58.50;;;;;;5053767;28;20056;-65
2021/08/25 10:38:25;;;;;;;5.47;2.40;;;24.90;58.00;;;;;;5052013;28;20044;-68
2021/08/25 10:40:55;;;;;;;4.78;2.45;;;25.10;57.40;;;;;;5051972;28;20040;-63
2021/08/25 10:43:38;;;;;;;5.22;2.45;;;25.10;57.30;;;;;;5053262;28;20512;-62
2021/08/25 10:46:06;;;;;;;6.63;3.20;;;25.00;56.70;;;;;;5052694;28;20049;-62
2021/08/25 10:48:37;;;;;;;13.85;11.02;;;24.70;56.60;;;;;;5053632;28;20043;-63
2021/08/25 10:51:04;;;;;;;7.00;5.13;;;24.80;56.60;;;;;;5051169;28;20044;-61
2021/08/25 10:53:31;;;;;;;5.38;3.17;;;24.90;56.20;;;;;;5051283;28;20048;-62
2021/08/25 10:56:12;;;;;;;6.10;3.58;;;24.80;56.20;;;;;;5053640;28;20497;-64
2021/08/25 10:58:55;;;;;;;5.85;3.08;;;24.90;56.50;;;;;;5052552;28;20036;-64
2021/08/25 11:01:42;;;;;;;6.70;2.70;;;25.00;55.70;;;;;;5053385;28;20025;-63
2021/08/25 11:04:24;;;;;;;4.30;2.95;;;25.00;55.90;;;;;;5053644;28;20457;-64
2021/08/25 11:06:57;;;;;;;4.05;1.95;;;24.90;55.50;;;;;;5048599;28;20512;-62
2021/08/25 11:09:30;;;;;;;5.25;2.47;;;25.00;55.40;;;;;;5053212;28;20029;-63
2021/08/25 11:12:00;;;;;;;4.70;2.42;;;25.10;55.80;;;;;;5053638;28;20484;-64
2021/08/25 11:14:33;;;;;;;5.40;2.53;;;25.20;56.10;;;;;;5052877;28;20036;-64
2021/08/25 11:17:12;;;;;;;5.70;2.75;;;25.10;56.60;;;;;;5052916;28;20056;-65
2021/08/25 11:19:43;;;;;;;4.97;2.67;;;25.10;56.40;;;;;;5053349;28;20025;-65
2021/08/25 11:22:14;;;;;;;3.72;2.35;;;25.10;56.20;;;;;;5052546;28;20623;-66
2021/08/25 11:24:43;;;;;;;4.78;2.40;;;25.10;56.70;;;;;;5053344;28;20489;-66
2021/08/25 11:27:36;;;;;;;5.85;2.80;;;25.20;56.10;;;;;;5053137;28;20374;-65
2021/08/25 11:30:16;;;;;;;5.95;2.97;;;25.30;55.30;;;;;;5051387;28;20048;-65
2021/08/25 11:33:03;;;;;;;4.13;2.20;;;25.40;54.50;;;;;;5053044;28;20084;-65
2021/08/25 11:35:39;;;;;;;2.45;1.85;;;25.40;54.60;;;;;;5052158;28;20566;-64
2021/08/25 11:38:09;;;;;;;2.63;1.90;;;25.40;53.80;;;;;;5050703;28;20060;-65
2021/08/25 11:40:37;;;;;;;;;;;25.40;54.00;;;;;;5053236;28;20037;-67
2021/08/25 11:43:15;;;;;;;3.65;2.28;;;25.40;54.30;;;;;;5051071;28;19912;-68
2021/08/25 11:45:43;;;;;;;6.68;2.70;;;25.30;55.00;;;;;;5052853;28;20039;-73
2021/08/25 11:48:10;;;;;;;4.38;2.38;;;25.30;55.00;;;;;;5051454;28;20377;-73
2021/08/25 11:50:39;;;;;;;3.33;2.10;;;25.40;55.20;;;;;;5050857;28;20037;-68
2021/08/25 11:53:18;;;;;;;3.58;2.00;;;25.50;54.30;;;;;;5052763;28;20037;-70
2021/08/25 11:55:45;;;;;;;4.32;2.28;;;25.40;52.30;;;;;;5052483;28;20036;-68
2021/08/25 11:58:25;;;;;;;4.25;2.70;;;25.50;52.60;;;;;;5051274;28;20037;-63
2021/08/25 12:00:56;;;;;;;3.28;2.20;;;25.60;51.60;;;;;;5051207;28;20060;-62
2021/08/25 12:03:45;;;;;;;8.00;5.38;;;25.60;52.90;;;;;;5052482;28;20052;-62
2021/08/25 12:06:13;;;;;;;5.45;2.63;;;25.60;53.20;;;;;;5050608;28;20051;-62
2021/08/25 12:08:45;;;;;;;4.88;2.67;;;25.50;53.00;;;;;;5041751;28;20033;-62
2021/08/25 12:11:13;;;;;;;3.58;2.20;;;25.50;53.00;;;;;;5040492;28;20044;-62
2021/08/25 12:13:44;;;;;;;4.57;2.45;;;25.50;53.00;;;;;;5048509;28;20044;-61
2021/08/25 12:16:30;;;;;;;7.30;2.65;;;25.60;52.50;;;;;;5051729;28;20037;-61
2021/08/25 12:19:01;;;;;;;4.20;2.00;;;25.70;51.90;;;;;;5047156;28;20037;-61
2021/08/25 12:21:30;;;;;;;6.60;2.00;;;25.90;52.10;;;;;;5041243;28;20372;-61
2021/08/25 12:24:05;;;;;;;3.65;1.77;;;25.90;52.40;;;;;;5041764;28;20076;-61
2021/08/25 12:26:34;;;;;;;8.07;1.90;;;26.00;52.50;;;;;;5031259;28;20413;-63
2021/08/25 12:29:02;;;;;;;3.65;1.58;;;26.00;52.20;;;;;;5030607;28;20045;-69
2021/08/25 12:31:34;;;;;;;4.18;1.95;;;26.10;52.20;;;;;;5030738;28;20036;-68
2021/08/25 12:34:03;;;;;;;1.98;1.42;;;26.10;52.30;;;;;;5030556;28;20037;-70
2021/08/25 12:36:32;;;;;;;4.03;2.00;;;26.00;52.20;;;;;;5030423;28;20410;-67
2021/08/25 12:39:09;;;;;;;4.55;2.08;;;25.80;52.60;;;;;;5030812;28;20037;-67
2021/08/25 12:41:42;;;;;;;2.95;2.15;;;25.70;52.90;;;;;;5030727;28;20045;-67
2021/08/25 12:44:10;;;;;;;1.90;1.45;;;25.70;52.50;;;;;;5032534;28;20034;-67
2021/08/25 12:46:49;;;;;;;3.58;1.88;;;25.70;52.40;;;;;;5031250;28;20049;-65
2021/08/25 12:49:15;;;;;;;3.35;1.85;;;25.70;52.90;;;;;;5031462;28;20048;-66
2021/08/25 12:51:42;;;;;;;3.88;1.40;;;25.90;53.00;;;;;;5031624;28;20037;-66
2021/08/25 12:54:08;;;;;;;7.57;1.55;;;26.00;52.30;;;;;;5031823;28;20045;-66
2021/08/25 12:56:35;;;;;;;2.58;1.40;;;26.10;51.50;;;;;;5031564;28;20021;-65
2021/08/25 12:59:01;;;;;;;6.07;1.55;;;26.00;51.20;;;;;;5032068;28;20040;-66